sensor_id;sensor_type;location;lat;lon;timestamp;temperature;humidity
37086;DHT22;23001;45.952;12.676;2022-11-18T00:00:29;11.60;99.90
37086;DHT22;23001;45.952;12.676;2022-11-18T00:02:56;11.70;99.90
37086;DHT22;23001;45.952;12.676;2022-11-18T00:05:27;11.80;99.90
37086;DHT22;23001;45.952;12.676;2022-11-18T00:07:56;11.70;99.90
37086;DHT22;23001;45.952;12.676;2022-11-18T00:10:22;11.80;99.90
37086;DHT22;23001;45.952;12.676;2022-11-18T00:12:48;11.70;99.90
37086;DHT22;23001;45.952;12.676;2022-11-18T00:16:22;11.70;99.90
37086;DHT22;23001;45.952;12.676;2022-11-18T00:18:28;11.60;99.90
37086;DHT22;23001;45.952;12.676;2022-11-18T00:21:27;11.60;99.90
37086;DHT22;23001;45.952;12.676;2022-11-18T00:23:55;11.70;99.90
37086;DHT22;23001;45.952;12.676;2022-11-18T00:26:21;11.70;99.90
37086;DHT22;23001;45.952;12.676;2022-11-18T00:28:47;11.70;99.90
37086;DHT22;23001;45.952;12.676;2022-11-18T00:31:18;11.60;99.90
37086;DHT22;23001;45.952;12.676;2022-11-18T00:33:53;11.60;99.90
37086;DHT22;23001;45.952;12.676;2022-11-18T00:36:22;11.60;99.90
37086;DHT22;23001;45.952;12.676;2022-11-18T00:39:10;11.60;99.90
37086;DHT22;23001;45.952;12.676;2022-11-18T00:41:36;11.70;99.90
37086;DHT22;23001;45.952;12.676;2022-11-18T00:44:21;11.70;99.90
37086;DHT22;23001;45.952;12.676;2022-11-18T00:46:59;11.70;99.90
37086;DHT22;23001;45.952;12.676;2022-11-18T00:49:28;11.70;99.90
37086;DHT22;23001;45.952;12.676;2022-11-18T00:52:02;11.70;99.90
37086;DHT22;23001;45.952;12.676;2022-11-18T00:54:33;11.70;99.90
37086;DHT22;23001;45.952;12.676;2022-11-18T00:57:01;11.70;99.90
37086;DHT22;23001;45.952;12.676;2022-11-18T00:59:33;11.60;99.90
37086;DHT22;23001;45.952;12.676;2022-11-18T01:01:59;11.70;99.90
37086;DHT22;23001;45.952;12.676;2022-11-18T01:04:30;11.70;99.90
37086;DHT22;23001;45.952;12.676;2022-11-18T01:06:59;11.70;99.90
37086;DHT22;23001;45.952;12.676;2022-11-18T01:09:27;11.70;99.90
37086;DHT22;23001;45.952;12.676;2022-11-18T01:11:53;11.60;99.90
37086;DHT22;23001;45.952;12.676;2022-11-18T01:14:38;11.70;99.90
37086;DHT22;23001;45.952;12.676;2022-11-18T01:17:03;11.70;99.90
37086;DHT22;23001;45.952;12.676;2022-11-18T01:19:29;11.70;99.90
37086;DHT22;23001;45.952;12.676;2022-11-18T01:21:55;11.60;99.90
37086;DHT22;23001;45.952;12.676;2022-11-18T01:24:21;11.60;99.90
37086;DHT22;23001;45.952;12.676;2022-11-18T01:26:47;11.70;99.90
37086;DHT22;23001;45.952;12.676;2022-11-18T01:29:13;11.70;99.90
37086;DHT22;23001;45.952;12.676;2022-11-18T01:31:40;11.70;99.90
37086;DHT22;23001;45.952;12.676;2022-11-18T01:34:05;11.70;99.90
37086;DHT22;23001;45.952;12.676;2022-11-18T01:36:31;11.70;99.90
37086;DHT22;23001;45.952;12.676;2022-11-18T01:38:57;11.70;99.90
37086;DHT22;23001;45.952;12.676;2022-11-18T01:41:25;11.60;99.90
37086;DHT22;23001;45.952;12.676;2022-11-18T01:43:56;11.60;99.90
37086;DHT22;23001;45.952;12.676;2022-11-18T01:46:24;11.60;99.90
37086;DHT22;23001;45.952;12.676;2022-11-18T01:49:02;11.50;99.90
37086;DHT22;23001;45.952;12.676;2022-11-18T01:51:32;11.50;99.90
37086;DHT22;23001;45.952;12.676;2022-11-18T01:54:04;11.50;99.90
37086;DHT22;23001;45.952;12.676;2022-11-18T01:56:41;11.60;99.90
37086;DHT22;23001;45.952;12.676;2022-11-18T01:59:11;11.60;99.90
37086;DHT22;23001;45.952;12.676;2022-11-18T02:01:37;11.70;99.90
37086;DHT22;23001;45.952;12.676;2022-11-18T02:04:03;11.60;99.90
37086;DHT22;23001;45.952;12.676;2022-11-18T02:06:29;11.60;99.90
37086;DHT22;23001;45.952;12.676;2022-11-18T02:08:55;11.60;99.90
37086;DHT22;23001;45.952;12.676;2022-11-18T02:11:21;11.70;99.90
37086;DHT22;23001;45.952;12.676;2022-11-18T02:14:07;11.60;99.90
37086;DHT22;23001;45.952;12.676;2022-11-18T02:30:10;11.70;99.90
37086;DHT22;23001;45.952;12.676;2022-11-18T02:33:02;11.70;99.90
37086;DHT22;23001;45.952;12.676;2022-11-18T02:35:53;11.70;99.90
37086;DHT22;23001;45.952;12.676;2022-11-18T02:38:44;11.70;99.90
37086;DHT22;23001;45.952;12.676;2022-11-18T02:41:17;11.80;99.90
37086;DHT22;23001;45.952;12.676;2022-11-18T02:43:53;11.70;99.90
37086;DHT22;23001;45.952;12.676;2022-11-18T02:46:26;11.70;99.90
37086;DHT22;23001;45.952;12.676;2022-11-18T02:48:55;11.60;99.90
37086;DHT22;23001;45.952;12.676;2022-11-18T02:51:26;11.60;99.90
37086;DHT22;23001;45.952;12.676;2022-11-18T02:53:57;11.60;99.90
37086;DHT22;23001;45.952;12.676;2022-11-18T02:56:26;11.60;99.90
37086;DHT22;23001;45.952;12.676;2022-11-18T02:58:52;11.70;99.90
37086;DHT22;23001;45.952;12.676;2022-11-18T03:01:28;11.70;99.90
37086;DHT22;23001;45.952;12.676;2022-11-18T03:03:55;11.70;99.90
37086;DHT22;23001;45.952;12.676;2022-11-18T03:06:36;11.70;99.90
37086;DHT22;23001;45.952;12.676;2022-11-18T03:11:36;11.70;99.90
37086;DHT22;23001;45.952;12.676;2022-11-18T03:16:34;11.60;99.90
37086;DHT22;23001;45.952;12.676;2022-11-18T03:21:44;11.60;99.90
37086;DHT22;23001;45.952;12.676;2022-11-18T03:24:26;11.60;99.90
37086;DHT22;23001;45.952;12.676;2022-11-18T03:27:02;11.50;99.90
37086;DHT22;23001;45.952;12.676;2022-11-18T03:29:34;11.40;99.90
37086;DHT22;23001;45.952;12.676;2022-11-18T03:32:16;11.50;99.90
37086;DHT22;23001;45.952;12.676;2022-11-18T03:34:50;11.50;99.90
37086;DHT22;23001;45.952;12.676;2022-11-18T03:37:18;11.40;99.90
37086;DHT22;23001;45.952;12.676;2022-11-18T03:39:53;11.40;99.90
37086;DHT22;23001;45.952;12.676;2022-11-18T03:42:52;11.40;99.90
37086;DHT22;23001;45.952;12.676;2022-11-18T03:45:40;11.50;99.90
37086;DHT22;23001;45.952;12.676;2022-11-18T03:48:17;11.40;99.90
37086;DHT22;23001;45.952;12.676;2022-11-18T03:50:59;11.40;99.90
37086;DHT22;23001;45.952;12.676;2022-11-18T03:53:27;11.40;99.90
37086;DHT22;23001;45.952;12.676;2022-11-18T03:56:08;11.40;99.90
37086;DHT22;23001;45.952;12.676;2022-11-18T04:03:53;11.30;99.90
37086;DHT22;23001;45.952;12.676;2022-11-18T04:09:14;11.30;99.90
37086;DHT22;23001;45.952;12.676;2022-11-18T04:11:46;11.30;99.90
37086;DHT22;23001;45.952;12.676;2022-11-18T04:14:35;11.20;99.90
37086;DHT22;23001;45.952;12.676;2022-11-18T04:17:26;11.10;99.90
37086;DHT22;23001;45.952;12.676;2022-11-18T04:19:52;11.20;99.90
37086;DHT22;23001;45.952;12.676;2022-11-18T04:22:17;11.20;99.90
37086;DHT22;23001;45.952;12.676;2022-11-18T04:24:44;11.20;99.90
37086;DHT22;23001;45.952;12.676;2022-11-18T04:27:10;11.10;99.90
37086;DHT22;23001;45.952;12.676;2022-11-18T04:29:36;11.20;99.90
37086;DHT22;23001;45.952;12.676;2022-11-18T04:32:02;11.20;99.90
37086;DHT22;23001;45.952;12.676;2022-11-18T04:34:29;11.20;99.90
37086;DHT22;23001;45.952;12.676;2022-11-18T04:36:55;11.10;99.90
37086;DHT22;23001;45.952;12.676;2022-11-18T04:39:21;11.20;99.90
37086;DHT22;23001;45.952;12.676;2022-11-18T04:41:47;11.10;99.90
37086;DHT22;23001;45.952;12.676;2022-11-18T04:44:30;11.10;99.90
37086;DHT22;23001;45.952;12.676;2022-11-18T04:46:57;11.10;99.90
37086;DHT22;23001;45.952;12.676;2022-11-18T04:49:24;11.10;99.90
37086;DHT22;23001;45.952;12.676;2022-11-18T04:51:51;11.20;99.90
37086;DHT22;23001;45.952;12.676;2022-11-18T04:54:17;11.20;99.90
37086;DHT22;23001;45.952;12.676;2022-11-18T04:56:43;11.20;99.90
37086;DHT22;23001;45.952;12.676;2022-11-18T04:59:10;11.20;99.90
37086;DHT22;23001;45.952;12.676;2022-11-18T05:01:36;11.20;99.90
37086;DHT22;23001;45.952;12.676;2022-11-18T05:04:03;11.20;99.90
37086;DHT22;23001;45.952;12.676;2022-11-18T05:06:29;11.20;99.90
37086;DHT22;23001;45.952;12.676;2022-11-18T05:08:57;11.20;99.90
37086;DHT22;23001;45.952;12.676;2022-11-18T05:11:24;11.20;99.90
37086;DHT22;23001;45.952;12.676;2022-11-18T05:14:09;11.20;99.90
37086;DHT22;23001;45.952;12.676;2022-11-18T05:16:34;11.20;99.90
37086;DHT22;23001;45.952;12.676;2022-11-18T05:19:04;11.20;99.90
37086;DHT22;23001;45.952;12.676;2022-11-18T05:21:30;11.30;99.90
37086;DHT22;23001;45.952;12.676;2022-11-18T05:23:58;11.30;99.90
37086;DHT22;23001;45.952;12.676;2022-11-18T05:26:24;11.30;99.90
37086;DHT22;23001;45.952;12.676;2022-11-18T05:28:50;11.30;99.90
37086;DHT22;23001;45.952;12.676;2022-11-18T05:31:17;11.30;99.90
37086;DHT22;23001;45.952;12.676;2022-11-18T05:33:43;11.30;99.90
37086;DHT22;23001;45.952;12.676;2022-11-18T05:36:13;11.30;99.90
37086;DHT22;23001;45.952;12.676;2022-11-18T05:38:39;11.30;99.90
37086;DHT22;23001;45.952;12.676;2022-11-18T05:41:06;11.30;99.90
37086;DHT22;23001;45.952;12.676;2022-11-18T05:43:34;11.30;99.90
37086;DHT22;23001;45.952;12.676;2022-11-18T05:46:00;11.30;99.90
37086;DHT22;23001;45.952;12.676;2022-11-18T05:48:26;11.30;99.90
37086;DHT22;23001;45.952;12.676;2022-11-18T05:50:54;11.30;99.90
37086;DHT22;23001;45.952;12.676;2022-11-18T05:53:22;11.30;99.90
37086;DHT22;23001;45.952;12.676;2022-11-18T05:56:05;11.30;99.90
37086;DHT22;23001;45.952;12.676;2022-11-18T05:58:33;11.30;99.90
37086;DHT22;23001;45.952;12.676;2022-11-18T06:01:03;11.30;99.90
37086;DHT22;23001;45.952;12.676;2022-11-18T06:03:31;11.30;99.90
37086;DHT22;23001;45.952;12.676;2022-11-18T06:06:00;11.30;99.90
37086;DHT22;23001;45.952;12.676;2022-11-18T06:08:31;11.30;99.90
37086;DHT22;23001;45.952;12.676;2022-11-18T06:10:59;11.20;99.90
37086;DHT22;23001;45.952;12.676;2022-11-18T06:13:28;11.30;99.90
37086;DHT22;23001;45.952;12.676;2022-11-18T06:15:56;11.30;99.90
37086;DHT22;23001;45.952;12.676;2022-11-18T06:18:24;11.20;99.90
37086;DHT22;23001;45.952;12.676;2022-11-18T06:20:52;11.20;99.90
37086;DHT22;23001;45.952;12.676;2022-11-18T06:23:19;11.30;99.90
37086;DHT22;23001;45.952;12.676;2022-11-18T06:25:45;11.20;99.90
37086;DHT22;23001;45.952;12.676;2022-11-18T06:28:13;11.20;99.90
37086;DHT22;23001;45.952;12.676;2022-11-18T06:30:39;11.20;99.90
37086;DHT22;23001;45.952;12.676;2022-11-18T06:33:06;11.20;99.90
37086;DHT22;23001;45.952;12.676;2022-11-18T06:35:31;11.20;99.90
37086;DHT22;23001;45.952;12.676;2022-11-18T06:37:57;11.30;99.90
37086;DHT22;23001;45.952;12.676;2022-11-18T06:40:26;11.30;99.90
37086;DHT22;23001;45.952;12.676;2022-11-18T06:42:52;11.30;99.90
37086;DHT22;23001;45.952;12.676;2022-11-18T06:45:37;11.30;99.90
37086;DHT22;23001;45.952;12.676;2022-11-18T06:48:05;11.30;99.90
37086;DHT22;23001;45.952;12.676;2022-11-18T06:50:31;11.30;99.90
37086;DHT22;23001;45.952;12.676;2022-11-18T06:52:59;11.40;99.90
37086;DHT22;23001;45.952;12.676;2022-11-18T06:55:25;11.40;99.90
37086;DHT22;23001;45.952;12.676;2022-11-18T06:57:51;11.40;99.90
37086;DHT22;23001;45.952;12.676;2022-11-18T07:00:17;11.40;99.90
37086;DHT22;23001;45.952;12.676;2022-11-18T07:02:43;11.40;99.90
37086;DHT22;23001;45.952;12.676;2022-11-18T07:05:08;11.40;99.90
37086;DHT22;23001;45.952;12.676;2022-11-18T07:07:35;11.40;99.90
37086;DHT22;23001;45.952;12.676;2022-11-18T07:10:00;11.40;99.90
37086;DHT22;23001;45.952;12.676;2022-11-18T07:12:26;11.40;99.90
37086;DHT22;23001;45.952;12.676;2022-11-18T07:14:52;11.40;99.90
37086;DHT22;23001;45.952;12.676;2022-11-18T07:17:17;11.50;99.90
37086;DHT22;23001;45.952;12.676;2022-11-18T07:19:43;11.50;99.90
37086;DHT22;23001;45.952;12.676;2022-11-18T07:22:09;11.50;99.90
37086;DHT22;23001;45.952;12.676;2022-11-18T07:24:34;11.50;99.90
37086;DHT22;23001;45.952;12.676;2022-11-18T07:27:00;11.50;99.90
37086;DHT22;23001;45.952;12.676;2022-11-18T07:29:26;11.60;99.90
37086;DHT22;23001;45.952;12.676;2022-11-18T07:31:52;11.60;99.90
37086;DHT22;23001;45.952;12.676;2022-11-18T07:34:17;11.60;99.90
37086;DHT22;23001;45.952;12.676;2022-11-18T07:36:43;11.60;99.90
37086;DHT22;23001;45.952;12.676;2022-11-18T07:39:09;11.60;99.90
37086;DHT22;23001;45.952;12.676;2022-11-18T07:41:38;11.70;99.90
37086;DHT22;23001;45.952;12.676;2022-11-18T07:44:05;11.70;99.90
37086;DHT22;23001;45.952;12.676;2022-11-18T07:46:32;11.70;99.90
37086;DHT22;23001;45.952;12.676;2022-11-18T07:49:00;11.70;99.90
37086;DHT22;23001;45.952;12.676;2022-11-18T07:51:28;11.80;99.90
37086;DHT22;23001;45.952;12.676;2022-11-18T07:53:54;11.80;99.90
37086;DHT22;23001;45.952;12.676;2022-11-18T07:56:20;11.90;99.90
37086;DHT22;23001;45.952;12.676;2022-11-18T07:58:47;11.90;99.90
37086;DHT22;23001;45.952;12.676;2022-11-18T08:01:18;11.90;99.90
37086;DHT22;23001;45.952;12.676;2022-11-18T08:03:47;11.90;99.90
37086;DHT22;23001;45.952;12.676;2022-11-18T08:06:17;12.00;99.90
37086;DHT22;23001;45.952;12.676;2022-11-18T08:08:44;12.00;99.90
37086;DHT22;23001;45.952;12.676;2022-11-18T08:11:12;12.10;99.90
37086;DHT22;23001;45.952;12.676;2022-11-18T08:13:38;12.10;99.90
37086;DHT22;23001;45.952;12.676;2022-11-18T08:16:11;12.10;99.90
37086;DHT22;23001;45.952;12.676;2022-11-18T08:18:37;12.20;99.90
37086;DHT22;23001;45.952;12.676;2022-11-18T08:21:04;12.20;99.90
37086;DHT22;23001;45.952;12.676;2022-11-18T08:23:30;12.30;99.90
37086;DHT22;23001;45.952;12.676;2022-11-18T08:26:08;12.30;99.90
37086;DHT22;23001;45.952;12.676;2022-11-18T08:28:34;12.30;99.90
37086;DHT22;23001;45.952;12.676;2022-11-18T08:31:26;12.30;99.90
37086;DHT22;23001;45.952;12.676;2022-11-18T08:34:01;12.30;99.90
37086;DHT22;23001;45.952;12.676;2022-11-18T08:36:30;12.40;99.90
37086;DHT22;23001;45.952;12.676;2022-11-18T08:38:56;12.40;99.90
37086;DHT22;23001;45.952;12.676;2022-11-18T08:41:43;12.40;99.90
37086;DHT22;23001;45.952;12.676;2022-11-18T08:44:12;12.40;99.90
37086;DHT22;23001;45.952;12.676;2022-11-18T08:46:38;12.40;99.90
37086;DHT22;23001;45.952;12.676;2022-11-18T08:49:04;12.40;99.90
37086;DHT22;23001;45.952;12.676;2022-11-18T08:51:29;12.50;99.90
37086;DHT22;23001;45.952;12.676;2022-11-18T08:53:55;12.50;99.90
37086;DHT22;23001;45.952;12.676;2022-11-18T08:56:22;12.60;99.90
37086;DHT22;23001;45.952;12.676;2022-11-18T08:58:49;12.60;99.90
37086;DHT22;23001;45.952;12.676;2022-11-18T09:01:17;12.70;99.90
37086;DHT22;23001;45.952;12.676;2022-11-18T09:03:43;12.80;99.90
37086;DHT22;23001;45.952;12.676;2022-11-18T09:06:16;12.90;99.90
37086;DHT22;23001;45.952;12.676;2022-11-18T09:08:43;12.90;99.90
37086;DHT22;23001;45.952;12.676;2022-11-18T09:11:14;12.90;99.90
37086;DHT22;23001;45.952;12.676;2022-11-18T09:13:40;13.00;99.90
37086;DHT22;23001;45.952;12.676;2022-11-18T09:16:07;13.10;99.90
37086;DHT22;23001;45.952;12.676;2022-11-18T09:18:33;13.10;99.90
37086;DHT22;23001;45.952;12.676;2022-11-18T09:21:05;13.30;99.90
37086;DHT22;23001;45.952;12.676;2022-11-18T09:23:34;13.30;99.90
37086;DHT22;23001;45.952;12.676;2022-11-18T09:26:08;13.50;99.90
37086;DHT22;23001;45.952;12.676;2022-11-18T09:31:33;13.70;99.90
37086;DHT22;23001;45.952;12.676;2022-11-18T09:33:59;13.80;99.90
37086;DHT22;23001;45.952;12.676;2022-11-18T09:36:25;13.80;99.90
37086;DHT22;23001;45.952;12.676;2022-11-18T09:38:52;13.90;99.90
37086;DHT22;23001;45.952;12.676;2022-11-18T09:46:50;14.00;99.90
37086;DHT22;23001;45.952;12.676;2022-11-18T09:51:55;14.00;99.90
37086;DHT22;23001;45.952;12.676;2022-11-18T09:54:24;13.90;99.90
37086;DHT22;23001;45.952;12.676;2022-11-18T09:56:59;13.90;99.90
37086;DHT22;23001;45.952;12.676;2022-11-18T09:59:28;13.80;99.90
37086;DHT22;23001;45.952;12.676;2022-11-18T10:02:02;13.70;99.90
37086;DHT22;23001;45.952;12.676;2022-11-18T10:04:32;13.60;99.90
37086;DHT22;23001;45.952;12.676;2022-11-18T10:06:58;13.50;99.90
37086;DHT22;23001;45.952;12.676;2022-11-18T10:09:38;13.50;99.90
37086;DHT22;23001;45.952;12.676;2022-11-18T10:12:35;13.30;99.90
37086;DHT22;23001;45.952;12.676;2022-11-18T10:15:18;13.20;99.90
37086;DHT22;23001;45.952;12.676;2022-11-18T10:23:25;13.30;99.90
37086;DHT22;23001;45.952;12.676;2022-11-18T10:25:53;13.20;99.90
37086;DHT22;23001;45.952;12.676;2022-11-18T10:28:27;13.10;99.90
37086;DHT22;23001;45.952;12.676;2022-11-18T10:31:07;13.10;99.90
37086;DHT22;23001;45.952;12.676;2022-11-18T10:33:34;13.10;99.90
37086;DHT22;23001;45.952;12.676;2022-11-18T10:38:42;13.10;99.90
37086;DHT22;23001;45.952;12.676;2022-11-18T10:41:12;13.10;99.90
37086;DHT22;23001;45.952;12.676;2022-11-18T10:49:14;13.30;99.90
37086;DHT22;23001;45.952;12.676;2022-11-18T10:52:12;13.20;99.90
37086;DHT22;23001;45.952;12.676;2022-11-18T10:54:39;13.20;99.90
37086;DHT22;23001;45.952;12.676;2022-11-18T10:57:17;13.20;99.90
37086;DHT22;23001;45.952;12.676;2022-11-18T10:59:48;13.10;99.90
37086;DHT22;23001;45.952;12.676;2022-11-18T11:02:30;13.10;99.90
37086;DHT22;23001;45.952;12.676;2022-11-18T11:05:02;13.00;99.90
37086;DHT22;23001;45.952;12.676;2022-11-18T11:07:35;12.90;99.90
37086;DHT22;23001;45.952;12.676;2022-11-18T11:10:20;12.90;99.90
37086;DHT22;23001;45.952;12.676;2022-11-18T11:13:00;12.90;99.90
37086;DHT22;23001;45.952;12.676;2022-11-18T11:15:36;12.90;99.90
37086;DHT22;23001;45.952;12.676;2022-11-18T11:18:20;12.80;99.90
37086;DHT22;23001;45.952;12.676;2022-11-18T11:21:20;12.80;99.90
37086;DHT22;23001;45.952;12.676;2022-11-18T11:23:49;12.80;99.90
37086;DHT22;23001;45.952;12.676;2022-11-18T11:31:49;12.90;99.90
37086;DHT22;23001;45.952;12.676;2022-11-18T11:45:18;13.20;99.90
37086;DHT22;23001;45.952;12.676;2022-11-18T11:56:56;13.50;99.90
37086;DHT22;23001;45.952;12.676;2022-11-18T12:02:43;14.20;99.90
37086;DHT22;23001;45.952;12.676;2022-11-18T12:05:39;14.40;99.90
37086;DHT22;23001;45.952;12.676;2022-11-18T12:26:56;14.40;99.90
37086;DHT22;23001;45.952;12.676;2022-11-18T12:29:24;14.40;99.90
37086;DHT22;23001;45.952;12.676;2022-11-18T12:31:58;14.40;99.90
37086;DHT22;23001;45.952;12.676;2022-11-18T12:34:42;14.60;99.90
37086;DHT22;23001;45.952;12.676;2022-11-18T12:37:37;14.60;99.90
37086;DHT22;23001;45.952;12.676;2022-11-18T12:40:03;14.60;99.90
37086;DHT22;23001;45.952;12.676;2022-11-18T12:42:55;14.70;99.90
37086;DHT22;23001;45.952;12.676;2022-11-18T12:48:37;14.90;99.90
37086;DHT22;23001;45.952;12.676;2022-11-18T12:51:54;15.00;99.90
37086;DHT22;23001;45.952;12.676;2022-11-18T12:53:56;15.00;99.90
37086;DHT22;23001;45.952;12.676;2022-11-18T12:56:23;15.10;99.90
37086;DHT22;23001;45.952;12.676;2022-11-18T12:58:56;15.10;99.90
37086;DHT22;23001;45.952;12.676;2022-11-18T13:01:26;15.00;99.90
37086;DHT22;23001;45.952;12.676;2022-11-18T13:04:05;14.90;99.90
37086;DHT22;23001;45.952;12.676;2022-11-18T13:06:32;15.10;99.90
37086;DHT22;23001;45.952;12.676;2022-11-18T13:09:04;15.00;99.90
37086;DHT22;23001;45.952;12.676;2022-11-18T13:11:38;14.90;99.90
37086;DHT22;23001;45.952;12.676;2022-11-18T13:14:31;14.90;99.90
37086;DHT22;23001;45.952;12.676;2022-11-18T13:17:26;14.90;99.90
37086;DHT22;23001;45.952;12.676;2022-11-18T13:22:54;14.80;99.90
37086;DHT22;23001;45.952;12.676;2022-11-18T13:25:38;14.70;99.90
37086;DHT22;23001;45.952;12.676;2022-11-18T13:30:35;14.70;99.90
37086;DHT22;23001;45.952;12.676;2022-11-18T13:33:09;14.70;99.90
37086;DHT22;23001;45.952;12.676;2022-11-18T13:35:39;14.70;99.90
37086;DHT22;23001;45.952;12.676;2022-11-18T13:38:05;14.70;99.90
37086;DHT22;23001;45.952;12.676;2022-11-18T13:40:43;14.80;99.90
37086;DHT22;23001;45.952;12.676;2022-11-18T13:43:27;14.70;99.90
37086;DHT22;23001;45.952;12.676;2022-11-18T13:45:53;14.70;99.90
37086;DHT22;23001;45.952;12.676;2022-11-18T13:48:19;14.70;99.90
37086;DHT22;23001;45.952;12.676;2022-11-18T13:50:48;14.60;99.90
37086;DHT22;23001;45.952;12.676;2022-11-18T13:53:29;14.70;99.90
37086;DHT22;23001;45.952;12.676;2022-11-18T13:56:05;14.60;99.90
37086;DHT22;23001;45.952;12.676;2022-11-18T14:01:16;14.60;99.90
37086;DHT22;23001;45.952;12.676;2022-11-18T14:04:03;14.60;99.90
37086;DHT22;23001;45.952;12.676;2022-11-18T14:06:36;14.50;99.90
37086;DHT22;23001;45.952;12.676;2022-11-18T14:09:24;14.60;99.90
37086;DHT22;23001;45.952;12.676;2022-11-18T14:14:36;14.60;99.90
37086;DHT22;23001;45.952;12.676;2022-11-18T14:19:47;14.50;99.90
37086;DHT22;23001;45.952;12.676;2022-11-18T14:22:16;14.50;99.90
37086;DHT22;23001;45.952;12.676;2022-11-18T14:24:43;14.40;99.90
37086;DHT22;23001;45.952;12.676;2022-11-18T14:30:33;14.40;99.90
37086;DHT22;23001;45.952;12.676;2022-11-18T14:33:16;14.40;99.90
37086;DHT22;23001;45.952;12.676;2022-11-18T14:35:48;14.30;99.90
37086;DHT22;23001;45.952;12.676;2022-11-18T14:40:59;14.10;99.90
37086;DHT22;23001;45.952;12.676;2022-11-18T14:43:26;14.10;99.90
37086;DHT22;23001;45.952;12.676;2022-11-18T14:45:53;14.10;99.90
37086;DHT22;23001;45.952;12.676;2022-11-18T14:48:21;14.00;99.90
37086;DHT22;23001;45.952;12.676;2022-11-18T14:50:47;14.00;99.90
37086;DHT22;23001;45.952;12.676;2022-11-18T14:53:13;14.10;99.90
37086;DHT22;23001;45.952;12.676;2022-11-18T14:55:39;14.00;99.90
37086;DHT22;23001;45.952;12.676;2022-11-18T14:58:12;14.00;99.90
37086;DHT22;23001;45.952;12.676;2022-11-18T15:00:39;13.80;99.90
37086;DHT22;23001;45.952;12.676;2022-11-18T15:03:04;13.80;99.90
37086;DHT22;23001;45.952;12.676;2022-11-18T15:05:30;13.80;99.90
37086;DHT22;23001;45.952;12.676;2022-11-18T15:07:56;13.80;99.90
37086;DHT22;23001;45.952;12.676;2022-11-18T15:10:21;13.70;99.90
37086;DHT22;23001;45.952;12.676;2022-11-18T15:12:47;13.70;99.90
37086;DHT22;23001;45.952;12.676;2022-11-18T15:15:13;13.70;99.90
37086;DHT22;23001;45.952;12.676;2022-11-18T15:17:39;13.60;99.90
37086;DHT22;23001;45.952;12.676;2022-11-18T15:20:05;13.60;99.90
37086;DHT22;23001;45.952;12.676;2022-11-18T15:22:34;13.60;99.90
37086;DHT22;23001;45.952;12.676;2022-11-18T15:25:00;13.50;99.90
37086;DHT22;23001;45.952;12.676;2022-11-18T15:27:25;13.50;99.90
37086;DHT22;23001;45.952;12.676;2022-11-18T15:29:51;13.40;99.90
37086;DHT22;23001;45.952;12.676;2022-11-18T15:32:17;13.40;99.90
37086;DHT22;23001;45.952;12.676;2022-11-18T15:34:43;13.30;99.90
37086;DHT22;23001;45.952;12.676;2022-11-18T15:37:11;13.20;99.90
37086;DHT22;23001;45.952;12.676;2022-11-18T15:39:36;13.10;99.90
37086;DHT22;23001;45.952;12.676;2022-11-18T15:42:02;13.10;99.90
37086;DHT22;23001;45.952;12.676;2022-11-18T15:44:28;13.10;99.90
37086;DHT22;23001;45.952;12.676;2022-11-18T15:46:54;13.00;99.90
37086;DHT22;23001;45.952;12.676;2022-11-18T15:49:21;12.90;99.90
37086;DHT22;23001;45.952;12.676;2022-11-18T15:51:47;12.80;99.90
37086;DHT22;23001;45.952;12.676;2022-11-18T15:54:13;12.80;99.90
37086;DHT22;23001;45.952;12.676;2022-11-18T15:56:39;12.80;99.90
37086;DHT22;23001;45.952;12.676;2022-11-18T15:59:08;12.80;99.90
37086;DHT22;23001;45.952;12.676;2022-11-18T16:01:38;12.70;99.90
37086;DHT22;23001;45.952;12.676;2022-11-18T16:04:05;12.70;99.90
37086;DHT22;23001;45.952;12.676;2022-11-18T16:06:31;12.70;99.90
37086;DHT22;23001;45.952;12.676;2022-11-18T16:08:57;12.70;99.90
37086;DHT22;23001;45.952;12.676;2022-11-18T16:11:23;12.70;99.90
37086;DHT22;23001;45.952;12.676;2022-11-18T16:14:11;12.70;99.90
37086;DHT22;23001;45.952;12.676;2022-11-18T16:16:38;12.70;99.90
37086;DHT22;23001;45.952;12.676;2022-11-18T16:19:08;12.70;99.90
37086;DHT22;23001;45.952;12.676;2022-11-18T16:21:37;12.60;99.90
37086;DHT22;23001;45.952;12.676;2022-11-18T16:24:04;12.70;99.90
37086;DHT22;23001;45.952;12.676;2022-11-18T16:26:31;12.60;99.90
37086;DHT22;23001;45.952;12.676;2022-11-18T16:28:59;12.70;99.90
37086;DHT22;23001;45.952;12.676;2022-11-18T16:31:25;12.70;99.90
37086;DHT22;23001;45.952;12.676;2022-11-18T16:36:39;12.60;99.90
37086;DHT22;23001;45.952;12.676;2022-11-18T16:39:26;12.60;99.90
37086;DHT22;23001;45.952;12.676;2022-11-18T16:41:54;12.60;99.90
37086;DHT22;23001;45.952;12.676;2022-11-18T16:44:21;12.60;99.90
37086;DHT22;23001;45.952;12.676;2022-11-18T16:46:49;12.60;99.90
37086;DHT22;23001;45.952;12.676;2022-11-18T16:49:17;12.60;99.90
37086;DHT22;23001;45.952;12.676;2022-11-18T16:51:45;12.70;99.90
37086;DHT22;23001;45.952;12.676;2022-11-18T16:54:20;12.70;99.90
37086;DHT22;23001;45.952;12.676;2022-11-18T16:56:47;12.60;99.90
37086;DHT22;23001;45.952;12.676;2022-11-18T16:59:18;12.60;99.90
37086;DHT22;23001;45.952;12.676;2022-11-18T17:01:46;12.60;99.90
37086;DHT22;23001;45.952;12.676;2022-11-18T17:04:12;12.60;99.90
37086;DHT22;23001;45.952;12.676;2022-11-18T17:06:39;12.50;99.90
37086;DHT22;23001;45.952;12.676;2022-11-18T17:09:05;12.50;99.90
37086;DHT22;23001;45.952;12.676;2022-11-18T17:11:31;12.40;99.90
37086;DHT22;23001;45.952;12.676;2022-11-18T17:13:57;12.50;99.90
37086;DHT22;23001;45.952;12.676;2022-11-18T17:16:23;12.50;99.90
37086;DHT22;23001;45.952;12.676;2022-11-18T17:18:56;12.40;99.90
37086;DHT22;23001;45.952;12.676;2022-11-18T17:21:24;12.30;99.90
37086;DHT22;23001;45.952;12.676;2022-11-18T17:23:50;12.30;99.90
37086;DHT22;23001;45.952;12.676;2022-11-18T17:26:19;12.10;99.90
37086;DHT22;23001;45.952;12.676;2022-11-18T17:28:45;12.20;99.90
37086;DHT22;23001;45.952;12.676;2022-11-18T17:31:16;12.00;99.90
37086;DHT22;23001;45.952;12.676;2022-11-18T17:33:43;11.90;99.90
37086;DHT22;23001;45.952;12.676;2022-11-18T17:36:13;11.80;99.90
37086;DHT22;23001;45.952;12.676;2022-11-18T17:38:41;11.80;99.90
37086;DHT22;23001;45.952;12.676;2022-11-18T17:41:09;11.80;99.90
37086;DHT22;23001;45.952;12.676;2022-11-18T17:43:55;11.70;99.90